sensor_id;sensor_type;location;lat;lon;timestamp;pressure;altitude;pressure_sealevel;temperature;humidity
66681;BME280;53575;51.366;12.350;2023-04-05T00:01:03;101172.00;;;1.62;86.13
66681;BME280;53575;51.366;12.350;2023-04-05T00:03:32;101165.34;;;1.67;86.24
66681;BME280;53575;51.366;12.350;2023-04-05T00:05:57;101165.31;;;1.86;86.07
66681;BME280;53575;51.366;12.350;2023-04-05T00:08:23;101157.16;;;1.97;84.51
66681;BME280;53575;51.366;12.350;2023-04-05T00:10:50;101164.25;;;2.22;80.41
66681;BME280;53575;51.366;12.350;2023-04-05T00:13:16;101157.34;;;2.01;80.78
66681;BME280;53575;51.366;12.350;2023-04-05T00:15:42;101159.88;;;2.00;79.38
66681;BME280;53575;51.366;12.350;2023-04-05T00:18:07;101166.19;;;1.87;78.59
66681;BME280;53575;51.366;12.350;2023-04-05T00:20:39;101158.81;;;2.15;79.00
66681;BME280;53575;51.366;12.350;2023-04-05T00:23:04;101159.13;;;2.23;78.79
66681;BME280;53575;51.366;12.350;2023-04-05T00:25:31;101150.53;;;2.23;78.86
66681;BME280;53575;51.366;12.350;2023-04-05T00:27:56;101149.34;;;2.14;75.54
66681;BME280;53575;51.366;12.350;2023-04-05T00:30:21;101146.44;;;2.07;75.24
66681;BME280;53575;51.366;12.350;2023-04-05T00:32:48;101147.75;;;2.18;77.18
66681;BME280;53575;51.366;12.350;2023-04-05T00:35:14;101143.47;;;2.18;77.32
66681;BME280;53575;51.366;12.350;2023-04-05T00:37:40;101145.09;;;2.16;78.31
66681;BME280;53575;51.366;12.350;2023-04-05T00:40:06;101149.13;;;2.10;77.61
66681;BME280;53575;51.366;12.350;2023-04-05T00:42:31;101146.59;;;1.90;79.04
66681;BME280;53575;51.366;12.350;2023-04-05T00:44:57;101141.66;;;1.95;80.13
66681;BME280;53575;51.366;12.350;2023-04-05T00:47:22;101139.59;;;2.07;76.61
66681;BME280;53575;51.366;12.350;2023-04-05T00:49:48;101139.91;;;2.15;77.48
66681;BME280;53575;51.366;12.350;2023-04-05T00:52:14;101136.94;;;2.27;75.84
66681;BME280;53575;51.366;12.350;2023-04-05T00:54:40;101127.22;;;2.21;78.32
66681;BME280;53575;51.366;12.350;2023-04-05T00:57:07;101128.75;;;2.16;77.43
66681;BME280;53575;51.366;12.350;2023-04-05T00:59:33;101122.97;;;2.01;78.74
66681;BME280;53575;51.366;12.350;2023-04-05T01:02:15;101125.13;;;2.11;78.52
66681;BME280;53575;51.366;12.350;2023-04-05T01:04:43;101125.34;;;2.17;78.71
66681;BME280;53575;51.366;12.350;2023-04-05T01:07:45;101130.19;;;2.09;78.20
66681;BME280;53575;51.366;12.350;2023-04-05T01:10:13;101128.31;;;2.05;77.98
66681;BME280;53575;51.366;12.350;2023-04-05T01:12:41;101122.84;;;1.77;78.61
66681;BME280;53575;51.366;12.350;2023-04-05T01:15:07;101124.31;;;1.91;77.86
66681;BME280;53575;51.366;12.350;2023-04-05T01:17:33;101125.69;;;2.04;77.81
66681;BME280;53575;51.366;12.350;2023-04-05T01:20:08;101116.56;;;2.12;78.18
66681;BME280;53575;51.366;12.350;2023-04-05T01:31:36;101117.94;;;2.04;79.05
66681;BME280;53575;51.366;12.350;2023-04-05T01:37:06;101119.78;;;2.06;79.87
66681;BME280;53575;51.366;12.350;2023-04-05T01:39:34;101122.97;;;1.80;81.16
66681;BME280;53575;51.366;12.350;2023-04-05T01:42:02;101114.09;;;1.73;82.87
66681;BME280;53575;51.366;12.350;2023-04-05T01:44:28;101118.75;;;1.82;82.42
66681;BME280;53575;51.366;12.350;2023-04-05T01:46:53;101121.50;;;2.28;82.47
66681;BME280;53575;51.366;12.350;2023-04-05T01:49:19;101113.34;;;1.97;83.29
66681;BME280;53575;51.366;12.350;2023-04-05T01:51:45;101120.81;;;1.90;83.15
66681;BME280;53575;51.366;12.350;2023-04-05T01:54:10;101113.09;;;1.90;82.54
66681;BME280;53575;51.366;12.350;2023-04-05T01:56:36;101112.22;;;1.90;82.50
66681;BME280;53575;51.366;12.350;2023-04-05T01:59:01;101114.63;;;2.06;81.85
66681;BME280;53575;51.366;12.350;2023-04-05T02:01:26;101100.44;;;2.17;81.23
66681;BME280;53575;51.366;12.350;2023-04-05T02:03:52;101107.19;;;2.14;82.37
66681;BME280;53575;51.366;12.350;2023-04-05T02:06:17;101104.03;;;2.21;81.30
66681;BME280;53575;51.366;12.350;2023-04-05T02:08:43;101093.28;;;2.31;82.42
66681;BME280;53575;51.366;12.350;2023-04-05T02:11:08;101096.97;;;2.38;82.76
66681;BME280;53575;51.366;12.350;2023-04-05T02:13:33;101093.09;;;2.27;82.66
66681;BME280;53575;51.366;12.350;2023-04-05T02:15:59;101100.84;;;2.27;85.55
66681;BME280;53575;51.366;12.350;2023-04-05T02:18:24;101101.34;;;2.18;83.53
66681;BME280;53575;51.366;12.350;2023-04-05T02:21:00;101100.41;;;2.16;83.50
66681;BME280;53575;51.366;12.350;2023-04-05T02:23:26;101096.41;;;2.24;83.83
66681;BME280;53575;51.366;12.350;2023-04-05T02:25:52;101096.28;;;2.21;82.85
66681;BME280;53575;51.366;12.350;2023-04-05T02:28:17;101098.59;;;1.92;83.82
66681;BME280;53575;51.366;12.350;2023-04-05T02:30:43;101097.06;;;1.98;83.48
66681;BME280;53575;51.366;12.350;2023-04-05T02:33:08;101096.88;;;1.93;82.56
66681;BME280;53575;51.366;12.350;2023-04-05T02:35:34;101100.59;;;2.00;83.30
66681;BME280;53575;51.366;12.350;2023-04-05T02:38:01;101094.25;;;1.91;83.96
66681;BME280;53575;51.366;12.350;2023-04-05T02:40:26;101090.81;;;1.91;84.10
66681;BME280;53575;51.366;12.350;2023-04-05T02:42:52;101091.59;;;1.90;83.56
66681;BME280;53575;51.366;12.350;2023-04-05T02:45:17;101089.25;;;1.75;83.70
66681;BME280;53575;51.366;12.350;2023-04-05T02:47:43;101091.69;;;1.91;82.99
66681;BME280;53575;51.366;12.350;2023-04-05T02:50:09;101086.53;;;1.91;82.71
66681;BME280;53575;51.366;12.350;2023-04-05T02:52:34;101088.66;;;1.81;82.52
66681;BME280;53575;51.366;12.350;2023-04-05T02:55:05;101088.66;;;1.81;82.67
66681;BME280;53575;51.366;12.350;2023-04-05T02:57:30;101082.09;;;1.89;82.86
66681;BME280;53575;51.366;12.350;2023-04-05T02:59:56;101077.50;;;1.82;82.17
66681;BME280;53575;51.366;12.350;2023-04-05T03:02:21;101085.13;;;1.79;81.99
66681;BME280;53575;51.366;12.350;2023-04-05T03:04:47;101077.34;;;1.77;82.65
66681;BME280;53575;51.366;12.350;2023-04-05T03:07:12;101083.84;;;1.90;83.16
66681;BME280;53575;51.366;12.350;2023-04-05T03:09:43;101077.13;;;1.93;81.92
66681;BME280;53575;51.366;12.350;2023-04-05T03:12:10;101079.97;;;1.79;81.55
66681;BME280;53575;51.366;12.350;2023-04-05T03:14:36;101074.13;;;1.62;82.12
66681;BME280;53575;51.366;12.350;2023-04-05T03:17:02;101076.50;;;1.78;81.88
66681;BME280;53575;51.366;12.350;2023-04-05T03:19:28;101080.09;;;1.82;82.13
66681;BME280;53575;51.366;12.350;2023-04-05T03:21:54;101075.72;;;1.60;82.39
66681;BME280;53575;51.366;12.350;2023-04-05T03:24:19;101073.59;;;1.70;83.46
66681;BME280;53575;51.366;12.350;2023-04-05T03:26:46;101077.44;;;1.59;83.92
66681;BME280;53575;51.366;12.350;2023-04-05T03:29:12;101074.06;;;1.60;83.79
66681;BME280;53575;51.366;12.350;2023-04-05T03:31:38;101075.81;;;1.61;83.79
66681;BME280;53575;51.366;12.350;2023-04-05T03:34:03;101076.81;;;1.65;83.70
66681;BME280;53575;51.366;12.350;2023-04-05T03:36:29;101073.44;;;1.66;84.17
66681;BME280;53575;51.366;12.350;2023-04-05T03:39:10;101074.38;;;1.68;84.23
66681;BME280;53575;51.366;12.350;2023-04-05T03:41:36;101090.06;;;1.53;83.81
66681;BME280;53575;51.366;12.350;2023-04-05T03:44:02;101079.97;;;1.58;83.63
66681;BME280;53575;51.366;12.350;2023-04-05T03:46:27;101085.34;;;1.64;82.12
66681;BME280;53575;51.366;12.350;2023-04-05T03:48:53;101079.78;;;1.74;81.93
66681;BME280;53575;51.366;12.350;2023-04-05T03:51:18;101081.66;;;1.57;82.83
66681;BME280;53575;51.366;12.350;2023-04-05T03:53:44;101087.41;;;1.52;83.38
66681;BME280;53575;51.366;12.350;2023-04-05T03:56:10;101080.50;;;1.51;83.55
66681;BME280;53575;51.366;12.350;2023-04-05T03:58:36;101078.72;;;1.69;83.03
66681;BME280;53575;51.366;12.350;2023-04-05T04:01:02;101085.06;;;1.77;82.12
66681;BME280;53575;51.366;12.350;2023-04-05T04:03:27;101085.19;;;1.80;82.17
66681;BME280;53575;51.366;12.350;2023-04-05T04:05:57;101087.78;;;1.80;81.63
66681;BME280;53575;51.366;12.350;2023-04-05T04:08:23;101081.97;;;1.65;82.56
66681;BME280;53575;51.366;12.350;2023-04-05T04:10:49;101077.00;;;1.69;82.08
66681;BME280;53575;51.366;12.350;2023-04-05T04:13:14;101079.09;;;1.78;82.89
66681;BME280;53575;51.366;12.350;2023-04-05T04:15:40;101070.09;;;1.68;83.14
66681;BME280;53575;51.366;12.350;2023-04-05T04:18:06;101077.88;;;1.70;82.85
66681;BME280;53575;51.366;12.350;2023-04-05T04:20:31;101081.78;;;1.81;83.41
66681;BME280;53575;51.366;12.350;2023-04-05T04:22:57;101080.72;;;1.76;82.79
66681;BME280;53575;51.366;12.350;2023-04-05T04:25:23;101076.75;;;1.63;83.35
66681;BME280;53575;51.366;12.350;2023-04-05T04:27:51;101068.44;;;1.50;83.48
66681;BME280;53575;51.366;12.350;2023-04-05T04:30:17;101074.47;;;1.50;83.76
66681;BME280;53575;51.366;12.350;2023-04-05T04:32:47;101074.34;;;1.47;84.15
66681;BME280;53575;51.366;12.350;2023-04-05T04:35:24;101082.00;;;1.45;85.47
66681;BME280;53575;51.366;12.350;2023-04-05T04:37:58;101076.38;;;1.54;85.21
66681;BME280;53575;51.366;12.350;2023-04-05T04:40:27;101078.19;;;1.57;84.58
66681;BME280;53575;51.366;12.350;2023-04-05T04:42:54;101081.53;;;1.54;84.98
66681;BME280;53575;51.366;12.350;2023-04-05T04:45:22;101078.34;;;1.40;86.02
66681;BME280;53575;51.366;12.350;2023-04-05T04:47:48;101080.03;;;1.40;86.14
66681;BME280;53575;51.366;12.350;2023-04-05T04:50:18;101074.28;;;1.45;85.15
66681;BME280;53575;51.366;12.350;2023-04-05T04:52:45;101079.16;;;1.39;85.17
66681;BME280;53575;51.366;12.350;2023-04-05T04:55:11;101074.38;;;1.49;84.80
66681;BME280;53575;51.366;12.350;2023-04-05T04:57:41;101072.13;;;1.56;84.39
66681;BME280;53575;51.366;12.350;2023-04-05T05:00:08;101073.94;;;1.57;84.71
66681;BME280;53575;51.366;12.350;2023-04-05T05:02:41;101076.75;;;1.63;84.09
66681;BME280;53575;51.366;12.350;2023-04-05T05:05:08;101078.72;;;1.69;84.64
66681;BME280;53575;51.366;12.350;2023-04-05T05:07:34;101070.72;;;1.63;83.56
66681;BME280;53575;51.366;12.350;2023-04-05T05:10:00;101076.75;;;1.63;83.74
66681;BME280;53575;51.366;12.350;2023-04-05T05:12:26;101079.25;;;1.83;83.49
66681;BME280;53575;51.366;12.350;2023-04-05T05:14:52;101071.91;;;1.71;82.76
66681;BME280;53575;51.366;12.350;2023-04-05T05:17:17;101080.41;;;1.68;83.10
66681;BME280;53575;51.366;12.350;2023-04-05T05:19:42;101080.13;;;1.41;83.91
66681;BME280;53575;51.366;12.350;2023-04-05T05:22:08;101073.09;;;1.58;84.83
66681;BME280;53575;51.366;12.350;2023-04-05T05:24:33;101070.84;;;1.66;82.43
66681;BME280;53575;51.366;12.350;2023-04-05T05:26:59;101069.78;;;1.82;81.80
66681;BME280;53575;51.366;12.350;2023-04-05T05:29:24;101071.16;;;1.94;82.20
66681;BME280;53575;51.366;12.350;2023-04-05T05:31:50;101069.59;;;1.98;81.26
66681;BME280;53575;51.366;12.350;2023-04-05T05:34:15;101075.25;;;1.89;81.02
66681;BME280;53575;51.366;12.350;2023-04-05T05:36:41;101070.66;;;2.03;80.76
66681;BME280;53575;51.366;12.350;2023-04-05T05:39:07;101073.56;;;1.90;81.83
66681;BME280;53575;51.366;12.350;2023-04-05T05:41:33;101080.72;;;1.97;81.96
66681;BME280;53575;51.366;12.350;2023-04-05T05:43:59;101080.59;;;2.15;81.88
66681;BME280;53575;51.366;12.350;2023-04-05T05:46:27;101078.25;;;2.21;81.53
66681;BME280;53575;51.366;12.350;2023-04-05T05:48:52;101072.06;;;2.17;82.03
66681;BME280;53575;51.366;12.350;2023-04-05T05:51:17;101080.59;;;2.15;81.04
66681;BME280;53575;51.366;12.350;2023-04-05T05:53:43;101067.88;;;2.19;81.00
66681;BME280;53575;51.366;12.350;2023-04-05T05:56:09;101076.44;;;2.18;80.83
66681;BME280;53575;51.366;12.350;2023-04-05T05:58:34;101069.41;;;2.14;81.19
66681;BME280;53575;51.366;12.350;2023-04-05T06:01:01;101072.59;;;2.30;80.29
66681;BME280;53575;51.366;12.350;2023-04-05T06:03:28;101064.69;;;2.25;80.60
66681;BME280;53575;51.366;12.350;2023-04-05T06:05:55;101076.09;;;2.32;80.79
66681;BME280;53575;51.366;12.350;2023-04-05T06:08:22;101072.50;;;2.28;80.01
66681;BME280;53575;51.366;12.350;2023-04-05T06:10:48;101070.00;;;2.30;79.57
66681;BME280;53575;51.366;12.350;2023-04-05T06:13:14;101072.72;;;2.33;80.14
66681;BME280;53575;51.366;12.350;2023-04-05T06:15:42;101068.44;;;2.56;79.30
66681;BME280;53575;51.366;12.350;2023-04-05T06:18:07;101071.22;;;2.39;79.56
66681;BME280;53575;51.366;12.350;2023-04-05T06:20:33;101061.75;;;2.61;79.21
66681;BME280;53575;51.366;12.350;2023-04-05T06:22:59;101069.63;;;2.64;78.57
66681;BME280;53575;51.366;12.350;2023-04-05T06:25:25;101079.06;;;2.63;77.34
66681;BME280;53575;51.366;12.350;2023-04-05T06:27:50;101075.69;;;2.66;77.60
66681;BME280;53575;51.366;12.350;2023-04-05T06:30:16;101063.50;;;2.62;77.64
66681;BME280;53575;51.366;12.350;2023-04-05T06:32:41;101064.03;;;2.76;77.52
66681;BME280;53575;51.366;12.350;2023-04-05T06:35:07;101067.94;;;2.88;80.74
66681;BME280;53575;51.366;12.350;2023-04-05T06:37:32;101065.69;;;2.98;77.47
66681;BME280;53575;51.366;12.350;2023-04-05T06:39:58;101067.34;;;2.96;75.80
66681;BME280;53575;51.366;12.350;2023-04-05T06:42:23;101069.16;;;2.98;75.89
66681;BME280;53575;51.366;12.350;2023-04-05T06:44:49;101067.31;;;2.94;77.00
66681;BME280;53575;51.366;12.350;2023-04-05T06:47:14;101071.03;;;3.02;76.93
66681;BME280;53575;51.366;12.350;2023-04-05T06:49:40;101069.34;;;3.03;77.35
66681;BME280;53575;51.366;12.350;2023-04-05T06:52:06;101062.78;;;3.12;76.18
66681;BME280;53575;51.366;12.350;2023-04-05T06:54:32;101060.84;;;3.31;75.03
66681;BME280;53575;51.366;12.350;2023-04-05T06:56:57;101068.16;;;3.42;74.27
66681;BME280;53575;51.366;12.350;2023-04-05T06:59:23;101066.25;;;3.62;73.49
66681;BME280;53575;51.366;12.350;2023-04-05T07:01:48;101064.47;;;3.85;73.53
66681;BME280;53575;51.366;12.350;2023-04-05T07:04:14;101060.97;;;3.85;72.05
66681;BME280;53575;51.366;12.350;2023-04-05T07:06:39;101065.03;;;3.51;73.74
66681;BME280;53575;51.366;12.350;2023-04-05T07:09:05;101066.94;;;3.57;73.67
66681;BME280;53575;51.366;12.350;2023-04-05T07:11:30;101063.13;;;3.71;73.64
66681;BME280;53575;51.366;12.350;2023-04-05T07:13:58;101063.22;;;3.74;73.26
66681;BME280;53575;51.366;12.350;2023-04-05T07:16:23;101064.13;;;3.76;73.07
66681;BME280;53575;51.366;12.350;2023-04-05T07:18:49;101056.63;;;3.84;72.94
66681;BME280;53575;51.366;12.350;2023-04-05T07:21:15;101055.16;;;3.65;73.48
66681;BME280;53575;51.366;12.350;2023-04-05T07:23:41;101057.69;;;3.63;72.86
66681;BME280;53575;51.366;12.350;2023-04-05T07:26:06;101054.56;;;3.74;73.40
66681;BME280;53575;51.366;12.350;2023-04-05T07:28:33;101052.22;;;3.81;73.50
66681;BME280;53575;51.366;12.350;2023-04-05T07:31:00;101054.19;;;3.88;72.99
66681;BME280;53575;51.366;12.350;2023-04-05T07:33:26;101052.66;;;3.68;74.20
66681;BME280;53575;51.366;12.350;2023-04-05T07:35:52;101053.19;;;3.83;72.65
66681;BME280;53575;51.366;12.350;2023-04-05T07:38:18;101047.59;;;3.71;73.60
66681;BME280;53575;51.366;12.350;2023-04-05T07:40:44;101054.28;;;3.64;72.86
66681;BME280;53575;51.366;12.350;2023-04-05T07:43:09;101045.94;;;3.73;74.05
66681;BME280;53575;51.366;12.350;2023-04-05T07:45:35;101052.19;;;3.80;73.53
66681;BME280;53575;51.366;12.350;2023-04-05T07:48:00;101057.59;;;3.86;72.41
66681;BME280;53575;51.366;12.350;2023-04-05T07:50:26;101051.19;;;3.75;72.28
66681;BME280;53575;51.366;12.350;2023-04-05T07:52:51;101046.78;;;3.72;71.32
66681;BME280;53575;51.366;12.350;2023-04-05T07:55:17;101053.94;;;3.81;71.45
66681;BME280;53575;51.366;12.350;2023-04-05T07:57:42;101047.50;;;3.94;71.12
66681;BME280;53575;51.366;12.350;2023-04-05T08:00:08;101044.03;;;3.93;71.43
66681;BME280;53575;51.366;12.350;2023-04-05T08:02:37;101044.09;;;3.96;69.64
66681;BME280;53575;51.366;12.350;2023-04-05T08:05:04;101045.53;;;4.13;67.71
66681;BME280;53575;51.366;12.350;2023-04-05T08:07:29;101038.75;;;4.17;67.12
66681;BME280;53575;51.366;12.350;2023-04-05T08:09:55;101039.09;;;4.28;66.33
66681;BME280;53575;51.366;12.350;2023-04-05T08:12:22;101041.59;;;4.26;67.07
66681;BME280;53575;51.366;12.350;2023-04-05T08:14:48;101035.75;;;4.32;66.25
66681;BME280;53575;51.366;12.350;2023-04-05T08:17:14;101040.47;;;4.45;64.50
66681;BME280;53575;51.366;12.350;2023-04-05T08:19:40;101030.22;;;4.48;64.85
66681;BME280;53575;51.366;12.350;2023-04-05T08:22:06;101026.88;;;4.52;63.96
66681;BME280;53575;51.366;12.350;2023-04-05T08:24:31;101027.06;;;4.58;63.95
66681;BME280;53575;51.366;12.350;2023-04-05T08:26:56;101029.72;;;4.61;56.52
66681;BME280;53575;51.366;12.350;2023-04-05T08:29:22;101023.16;;;4.73;61.52
66681;BME280;53575;51.366;12.350;2023-04-05T08:31:47;101028.78;;;4.88;60.26
66681;BME280;53575;51.366;12.350;2023-04-05T08:34:13;101031.34;;;4.88;60.20
66681;BME280;53575;51.366;12.350;2023-04-05T08:36:38;101026.41;;;4.96;59.35
66681;BME280;53575;51.366;12.350;2023-04-05T08:39:03;101024.63;;;4.93;61.05
66681;BME280;53575;51.366;12.350;2023-04-05T08:41:36;101019.53;;;4.96;56.45
66681;BME280;53575;51.366;12.350;2023-04-05T08:44:08;101021.63;;;5.11;52.51
66681;BME280;53575;51.366;12.350;2023-04-05T08:46:34;101022.56;;;5.13;51.48
66681;BME280;53575;51.366;12.350;2023-04-05T08:49:07;101012.53;;;5.25;52.92
66681;BME280;53575;51.366;12.350;2023-04-05T08:51:35;101018.69;;;5.29;53.78
66681;BME280;53575;51.366;12.350;2023-04-05T08:54:01;101025.75;;;5.34;51.84
66681;BME280;53575;51.366;12.350;2023-04-05T08:56:33;101016.56;;;5.47;51.08
66681;BME280;53575;51.366;12.350;2023-04-05T08:59:06;101023.75;;;5.57;51.03
66681;BME280;53575;51.366;12.350;2023-04-05T09:01:41;101014.06;;;5.85;50.09
66681;BME280;53575;51.366;12.350;2023-04-05T09:04:14;101022.09;;;5.94;47.43
66681;BME280;53575;51.366;12.350;2023-04-05T09:06:40;101022.50;;;6.11;48.58
66681;BME280;53575;51.366;12.350;2023-04-05T09:09:08;101019.94;;;6.13;48.90
66681;BME280;53575;51.366;12.350;2023-04-05T09:11:34;101011.44;;;6.20;48.99
66681;BME280;53575;51.366;12.350;2023-04-05T09:14:06;101018.38;;;6.21;47.91
66681;BME280;53575;51.366;12.350;2023-04-05T09:16:34;101013.88;;;6.14;46.85
66681;BME280;53575;51.366;12.350;2023-04-05T09:19:01;101010.31;;;6.46;45.90
66681;BME280;53575;51.366;12.350;2023-04-05T09:21:27;101019.66;;;6.40;43.75
66681;BME280;53575;51.366;12.350;2023-04-05T09:23:53;101016.63;;;6.20;42.19
66681;BME280;53575;51.366;12.350;2023-04-05T09:26:21;101022.69;;;6.19;42.62
66681;BME280;53575;51.366;12.350;2023-04-05T09:28:47;101012.72;;;5.99;42.60
66681;BME280;53575;51.366;12.350;2023-04-05T09:31:32;101015.09;;;5.92;43.55
66681;BME280;53575;51.366;12.350;2023-04-05T09:34:01;101005.22;;;6.13;46.20
66681;BME280;53575;51.366;12.350;2023-04-05T09:36:27;101000.63;;;6.39;45.54
66681;BME280;53575;51.366;12.350;2023-04-05T09:38:52;101004.94;;;6.39;45.07
66681;BME280;53575;51.366;12.350;2023-04-05T09:41:28;101013.13;;;6.57;43.77
66681;BME280;53575;51.366;12.350;2023-04-05T09:43:53;101013.41;;;6.71;43.45
66681;BME280;53575;51.366;12.350;2023-04-05T09:46:30;101006.53;;;6.73;42.23
66681;BME280;53575;51.366;12.350;2023-04-05T09:48:56;101005.78;;;6.78;42.74
66681;BME280;53575;51.366;12.350;2023-04-05T09:51:21;101007.88;;;6.98;43.51
66681;BME280;53575;51.366;12.350;2023-04-05T09:54:04;101006.41;;;6.67;44.23
66681;BME280;53575;51.366;12.350;2023-04-05T09:56:35;100999.72;;;6.78;43.06
66681;BME280;53575;51.366;12.350;2023-04-05T09:59:05;101001.94;;;7.03;42.42
66681;BME280;53575;51.366;12.350;2023-04-05T10:01:32;100998.47;;;7.03;42.43
66681;BME280;53575;51.366;12.350;2023-04-05T10:03:58;100997.91;;;7.18;42.92
66681;BME280;53575;51.366;12.350;2023-04-05T10:06:37;100998.19;;;7.33;43.41
66681;BME280;53575;51.366;12.350;2023-04-05T10:09:04;101002.31;;;7.23;42.00
66681;BME280;53575;51.366;12.350;2023-04-05T10:11:34;101007.81;;;6.93;42.59
66681;BME280;53575;51.366;12.350;2023-04-05T10:14:02;100995.53;;;6.86;42.06
66681;BME280;53575;51.366;12.350;2023-04-05T10:17:07;100999.13;;;6.93;42.18
66681;BME280;53575;51.366;12.350;2023-04-05T10:19:50;100996.31;;;7.26;40.88
66681;BME280;53575;51.366;12.350;2023-04-05T10:22:35;100995.00;;;7.51;40.68
66681;BME280;53575;51.366;12.350;2023-04-05T10:25:12;100989.88;;;7.54;39.99
66681;BME280;53575;51.366;12.350;2023-04-05T10:27:51;100978.41;;;7.96;40.15
66681;BME280;53575;51.366;12.350;2023-04-05T10:30:17;100984.28;;;7.82;40.61
66681;BME280;53575;51.366;12.350;2023-04-05T10:32:55;100986.97;;;7.89;39.38
66681;BME280;53575;51.366;12.350;2023-04-05T10:35:34;100983.66;;;7.44;39.49
66681;BME280;53575;51.366;12.350;2023-04-05T10:40:36;100985.13;;;7.30;39.49
66681;BME280;53575;51.366;12.350;2023-04-05T10:43:03;100980.41;;;7.59;39.82
66681;BME280;53575;51.366;12.350;2023-04-05T10:45:31;100982.91;;;8.06;38.90
66681;BME280;53575;51.366;12.350;2023-04-05T10:48:04;100967.50;;;8.21;39.01
66681;BME280;53575;51.366;12.350;2023-04-05T10:50:33;100970.66;;;8.61;38.46
66681;BME280;53575;51.366;12.350;2023-04-05T10:53:00;100963.88;;;8.74;38.57
66681;BME280;53575;51.366;12.350;2023-04-05T10:55:27;100972.78;;;8.94;37.57
66681;BME280;53575;51.366;12.350;2023-04-05T10:57:53;100968.81;;;9.35;36.84
66681;BME280;53575;51.366;12.350;2023-04-05T11:00:21;100961.94;;;9.40;36.44
66681;BME280;53575;51.366;12.350;2023-04-05T11:02:47;100963.78;;;9.53;36.89
66681;BME280;53575;51.366;12.350;2023-04-05T11:05:34;100966.91;;;9.12;36.78
66681;BME280;53575;51.366;12.350;2023-04-05T11:08:07;100966.03;;;9.15;36.58
66681;BME280;53575;51.366;12.350;2023-04-05T11:10:37;100962.50;;;9.11;36.27
66681;BME280;53575;51.366;12.350;2023-04-05T11:13:04;100967.34;;;8.74;36.84
66681;BME280;53575;51.366;12.350;2023-04-05T11:15:31;100961.28;;;8.75;36.80
66681;BME280;53575;51.366;12.350;2023-04-05T11:21:04;100960.31;;;8.67;36.63
66681;BME280;53575;51.366;12.350;2023-04-05T11:23:30;100953.28;;;8.60;37.44
66681;BME280;53575;51.366;12.350;2023-04-05T11:26:04;100957.75;;;8.70;37.36
66681;BME280;53575;51.366;12.350;2023-04-05T11:28:34;100952.31;;;8.52;37.35
66681;BME280;53575;51.366;12.350;2023-04-05T11:31:16;100953.50;;;8.15;38.33
66681;BME280;53575;51.366;12.350;2023-04-05T11:36:38;100943.09;;;8.16;38.11
66681;BME280;53575;51.366;12.350;2023-04-05T11:41:45;100943.34;;;8.33;38.13
66681;BME280;53575;51.366;12.350;2023-04-05T11:44:14;100943.53;;;8.47;37.80
66681;BME280;53575;51.366;12.350;2023-04-05T11:46:45;100944.72;;;8.73;36.83
66681;BME280;53575;51.366;12.350;2023-04-05T11:49:14;100948.13;;;8.65;37.10
66681;BME280;53575;51.366;12.350;2023-04-05T11:51:40;100944.94;;;8.92;36.57
66681;BME280;53575;51.366;12.350;2023-04-05T11:54:13;100945.72;;;8.82;36.57
66681;BME280;53575;51.366;12.350;2023-04-05T11:56:39;100945.06;;;9.01;36.56
66681;BME280;53575;51.366;12.350;2023-04-05T11:59:06;100935.50;;;9.01;37.21
66681;BME280;53575;51.366;12.350;2023-04-05T12:01:32;100940.78;;;9.09;36.66
66681;BME280;53575;51.366;12.350;2023-04-05T12:03:57;100937.00;;;8.81;37.04
66681;BME280;53575;51.366;12.350;2023-04-05T12:06:24;100940.28;;;8.63;36.98
66681;BME280;53575;51.366;12.350;2023-04-05T12:08:50;100936.69;;;8.52;37.34
66681;BME280;53575;51.366;12.350;2023-04-05T12:11:27;100935.13;;;8.66;37.91
66681;BME280;53575;51.366;12.350;2023-04-05T12:13:54;100934.78;;;9.18;37.09
66681;BME280;53575;51.366;12.350;2023-04-05T12:16:20;100931.50;;;9.39;36.31
66681;BME280;53575;51.366;12.350;2023-04-05T12:18:52;100925.69;;;9.76;35.90
66681;BME280;53575;51.366;12.350;2023-04-05T12:21:18;100923.25;;;10.02;35.26
66681;BME280;53575;51.366;12.350;2023-04-05T12:23:44;100926.75;;;10.06;35.13
66681;BME280;53575;51.366;12.350;2023-04-05T12:26:09;100923.22;;;9.96;36.10
66681;BME280;53575;51.366;12.350;2023-04-05T12:28:58;100922.34;;;9.96;35.56
66681;BME280;53575;51.366;12.350;2023-04-05T12:31:40;100917.38;;;10.36;34.75
66681;BME280;53575;51.366;12.350;2023-04-05T12:34:06;100914.03;;;10.73;35.60
66681;BME280;53575;51.366;12.350;2023-04-05T12:36:32;100916.69;;;11.01;33.22
66681;BME280;53575;51.366;12.350;2023-04-05T12:38:58;100911.47;;;11.24;33.28
66681;BME280;53575;51.366;12.350;2023-04-05T12:41:28;100894.00;;;11.74;33.73
66681;BME280;53575;51.366;12.350;2023-04-05T12:43:54;100893.97;;;12.07;32.44
66681;BME280;53575;51.366;12.350;2023-04-05T12:46:37;100886.97;;;12.15;31.76
66681;BME280;53575;51.366;12.350;2023-04-05T12:49:04;100895.69;;;12.22;32.68
66681;BME280;53575;51.366;12.350;2023-04-05T12:51:30;100883.38;;;12.35;32.46
66681;BME280;53575;51.366;12.350;2023-04-05T12:53:56;100887.50;;;12.86;33.24
66681;BME280;53575;51.366;12.350;2023-04-05T12:56:27;100893.59;;;12.88;32.29
66681;BME280;53575;51.366;12.350;2023-04-05T12:58:53;100887.69;;;12.50;33.15
66681;BME280;53575;51.366;12.350;2023-04-05T13:01:19;100875.25;;;12.87;33.11
66681;BME280;53575;51.366;12.350;2023-04-05T13:03:44;100883.28;;;12.55;32.78
66681;BME280;53575;51.366;12.350;2023-04-05T13:06:10;100880.94;;;11.87;33.67
66681;BME280;53575;51.366;12.350;2023-04-05T13:08:35;100879.09;;;12.12;33.66
66681;BME280;53575;51.366;12.350;2023-04-05T13:11:01;100877.28;;;12.33;32.75
66681;BME280;53575;51.366;12.350;2023-04-05T13:13:26;100877.38;;;12.05;32.71
66681;BME280;53575;51.366;12.350;2023-04-05T13:15:52;100879.88;;;12.37;33.34